Language selection

My Weather Profile Weather Topics  | 

Atlantic - Newfoundland: Past 24 Hour Conditions

 

West Chedabucto Bay - 44489

11:00 PM ADT 06 July 2022Buoy position: 45.49N 61.14W
Disclaimer

This table is a summary of hourly weather conditions for the past 24 hours.
Please note that these observations might not always be representative of weather conditions over their associated marine area.

Date / Time
(ADT)
Wind(knots) Wave height(m) Wave period(s) Pressure(kPa) Air tempC) Water tempC)
06 July 2022
23:00 WSW 9 gust 11 0.4 5.0 100.2 14 10
22:00 SW 9 gust 10 0.6 4.0 100.2 12 10
21:00 SW 11 gust 12 0.8 3.7 100.2 13 10
20:00 S 17 gust 21 1.1 3.9 100.2 14 11
19:00 S 21 gust 26 1.1 3.9 100.3 15 11
18:00 S 21 gust 24 1.0 3.7 100.4 15 12
17:00 SSE 23 gust 29 1.0 3.7 100.5 15 12
16:00 SSE 21 gust 24 0.8 3.3 100.7 15 12
15:00 SSE 19 gust 24 0.8 3.2 100.8 14 12
14:00 SSE 17 gust 22 0.7 3.0 101.0 14 12
13:00 SSE 13 gust 15 0.3 2.5 101.1 15 13
12:00 SE 11 gust 13 0.2 3.9 101.2 14 13
11:00 SSE 8 gust 8 0.2 2.9 101.3 14 12
10:00 S 10 gust 11 0.4 2.6 101.4 14 12
9:00 SSW 12 gust 14 0.4 2.6 101.4 14 12
8:00 SSW 14 gust 16 0.2 2.9 101.4 15 13
7:00 SSW 5 gust 6 0.2 4.3 101.5 14 13
6:00 SW 8 gust 9 0.2 3.5 101.4 14 13
5:00 WSW 11 gust 13 0.3 2.5 101.4 14 12
4:00 SW 12 gust 13 0.3 2.6 101.4 15 11
3:00 SW 8 gust 10 0.3 2.7 101.4 14 11
2:00 SSW 10 gust 12 0.3 2.5 101.4 14 11
1:00 SSW 11 gust 12 0.3 2.6 101.4 14 12
0:00 SSW 10 gust 11 0.2 3.1 101.4 14 12
05 July 2022
23:00 SSW 8 gust 9 0.1 3.4 101.5 15 12

Zoom-in to make a selection

Map of Atlantic - Newfoundland marine weather areas Banquereau - 44139 East Chedabucto Bay - 44488 West Chedabucto Bay - 44489 Blanc-Sablon Airport Cap Whittle Chevery Natashquan Airport Heath Point Îles de la Madeleine Airport Miscou Island Eskasoni (First Nations) Grand Étang Ingonish Beach North Mountain St.Paul Island J.A. Douglas McCurdy Sydney Airport Charlottetown Airport East Point North Cape Argentia Berry Hill Bonavista Burgeo Cape Race Corner Brook Daniel's Harbour Englee Ferolle Point La Scie Port aux Basques Sagona Island St. Anthony Airport St. John's Int'l Airport St. Lawrence Stephenville Airport Twillingate Winterland Branch Hill Wreckhouse Grates Cove Pool's Island Marticot Island Long Pond Cartwright Airport Mary's Harbour
Legend:
buoy Buoy
land station Land Station

Atlantic - Newfoundland Area

Another Region

What we are doing

Features

WeatherCAN app: set custom notifications

Learn how to set custom Air Quality Health Index notifications on the WeatherCAN app

Date modified: